sensor_id;sensor_type;location;lat;lon;timestamp;pressure;altitude;pressure_sealevel;temperature;humidity
8140;BME280;4111;50.972;7.072;2023-05-29T00:01:49;101466.69;;;17.87;65.70
8140;BME280;4111;50.972;7.072;2023-05-29T00:04:15;101471.59;;;17.90;65.34
8140;BME280;4111;50.972;7.072;2023-05-29T00:06:42;101476.00;;;17.91;65.39
8140;BME280;4111;50.972;7.072;2023-05-29T00:09:14;101473.00;;;17.88;65.38
8140;BME280;4111;50.972;7.072;2023-05-29T00:11:41;101479.56;;;17.92;65.40
8140;BME280;4111;50.972;7.072;2023-05-29T00:14:07;101482.00;;;17.83;65.64
8140;BME280;4111;50.972;7.072;2023-05-29T00:16:34;101483.66;;;17.79;65.74
8140;BME280;4111;50.972;7.072;2023-05-29T00:19:03;101477.91;;;17.80;65.51
8140;BME280;4111;50.972;7.072;2023-05-29T00:21:30;101485.31;;;17.75;65.87
8140;BME280;4111;50.972;7.072;2023-05-29T00:23:56;101489.44;;;17.67;66.16
8140;BME280;4111;50.972;7.072;2023-05-29T00:26:22;101493.03;;;17.62;66.26
8140;BME280;4111;50.972;7.072;2023-05-29T00:28:49;101499.91;;;17.70;66.34
8140;BME280;4111;50.972;7.072;2023-05-29T00:31:15;101508.13;;;17.65;66.37
8140;BME280;4111;50.972;7.072;2023-05-29T00:33:42;101505.69;;;17.63;66.50
8140;BME280;4111;50.972;7.072;2023-05-29T00:36:09;101496.03;;;17.71;66.35
8140;BME280;4111;50.972;7.072;2023-05-29T00:38:36;101494.66;;;17.69;66.43
8140;BME280;4111;50.972;7.072;2023-05-29T00:41:03;101496.88;;;17.67;66.72
8140;BME280;4111;50.972;7.072;2023-05-29T00:43:29;101491.38;;;17.72;66.51
8140;BME280;4111;50.972;7.072;2023-05-29T00:45:56;101480.94;;;17.69;66.53
8140;BME280;4111;50.972;7.072;2023-05-29T00:48:23;101488.66;;;17.61;66.69
8140;BME280;4111;50.972;7.072;2023-05-29T00:50:50;101492.22;;;17.62;66.54
8140;BME280;4111;50.972;7.072;2023-05-29T00:53:17;101496.06;;;17.51;66.51
8140;BME280;4111;50.972;7.072;2023-05-29T00:55:44;101499.06;;;17.39;67.09
8140;BME280;4111;50.972;7.072;2023-05-29T00:58:11;101497.16;;;17.34;67.21
8140;BME280;4111;50.972;7.072;2023-05-29T01:00:37;101500.72;;;17.14;67.62
8140;BME280;4111;50.972;7.072;2023-05-29T01:03:06;101507.81;;;17.05;68.01
8140;BME280;4111;50.972;7.072;2023-05-29T01:05:34;101509.75;;;17.15;68.00
8140;BME280;4111;50.972;7.072;2023-05-29T01:08:02;101507.28;;;17.08;68.11
8140;BME280;4111;50.972;7.072;2023-05-29T01:10:29;101501.22;;;17.06;68.16
8140;BME280;4111;50.972;7.072;2023-05-29T01:13:09;101497.94;;;17.04;68.42
8140;BME280;4111;50.972;7.072;2023-05-29T01:20:42;101508.91;;;17.04;68.97
8140;BME280;4111;50.972;7.072;2023-05-29T01:23:23;101508.34;;;16.97;69.18
8140;BME280;4111;50.972;7.072;2023-05-29T01:26:03;101504.50;;;16.98;69.18
8140;BME280;4111;50.972;7.072;2023-05-29T01:28:41;101512.75;;;16.93;69.13
8140;BME280;4111;50.972;7.072;2023-05-29T01:31:09;101519.84;;;16.89;69.22
8140;BME280;4111;50.972;7.072;2023-05-29T01:33:40;101519.50;;;16.80;69.42
8140;BME280;4111;50.972;7.072;2023-05-29T01:36:10;101524.19;;;16.79;69.49
8140;BME280;4111;50.972;7.072;2023-05-29T01:38:37;101523.34;;;16.69;69.20
8140;BME280;4111;50.972;7.072;2023-05-29T01:41:04;101530.13;;;16.56;69.86
8140;BME280;4111;50.972;7.072;2023-05-29T01:43:30;101530.13;;;16.56;69.70
8140;BME280;4111;50.972;7.072;2023-05-29T01:45:57;101538.38;;;16.61;69.52
8140;BME280;4111;50.972;7.072;2023-05-29T01:48:24;101540.56;;;16.59;69.51
8140;BME280;4111;50.972;7.072;2023-05-29T01:50:51;101538.84;;;16.48;69.40
8140;BME280;4111;50.972;7.072;2023-05-29T01:53:18;101543.22;;;16.49;69.38
8140;BME280;4111;50.972;7.072;2023-05-29T01:55:45;101549.78;;;16.37;69.11
8140;BME280;4111;50.972;7.072;2023-05-29T01:58:12;101552.19;;;16.29;69.06
8140;BME280;4111;50.972;7.072;2023-05-29T02:00:40;101551.88;;;16.25;68.73
8140;BME280;4111;50.972;7.072;2023-05-29T02:03:08;101545.00;;;16.17;68.76
8140;BME280;4111;50.972;7.072;2023-05-29T02:05:37;101544.16;;;16.17;69.12
8140;BME280;4111;50.972;7.072;2023-05-29T02:08:03;101545.75;;;16.08;68.80
8140;BME280;4111;50.972;7.072;2023-05-29T02:10:29;101552.63;;;16.10;68.76
8140;BME280;4111;50.972;7.072;2023-05-29T02:12:58;101556.38;;;15.99;68.70
8140;BME280;4111;50.972;7.072;2023-05-29T02:15:24;101551.69;;;15.94;68.69
8140;BME280;4111;50.972;7.072;2023-05-29T02:17:50;101562.47;;;15.74;68.82
8140;BME280;4111;50.972;7.072;2023-05-29T02:20:17;101558.66;;;15.75;69.02
8140;BME280;4111;50.972;7.072;2023-05-29T02:22:44;101559.41;;;15.70;69.31
8140;BME280;4111;50.972;7.072;2023-05-29T02:25:11;101558.00;;;15.67;68.98
8140;BME280;4111;50.972;7.072;2023-05-29T02:27:38;101564.19;;;15.53;69.39
8140;BME280;4111;50.972;7.072;2023-05-29T02:30:05;101567.03;;;15.36;69.69
8140;BME280;4111;50.972;7.072;2023-05-29T02:32:31;101571.47;;;15.42;69.86
8140;BME280;4111;50.972;7.072;2023-05-29T02:34:58;101579.53;;;15.26;70.19
8140;BME280;4111;50.972;7.072;2023-05-29T02:37:25;101575.47;;;15.34;70.14
8140;BME280;4111;50.972;7.072;2023-05-29T02:39:52;101580.13;;;15.34;69.88
8140;BME280;4111;50.972;7.072;2023-05-29T02:42:18;101588.25;;;15.23;70.15
8140;BME280;4111;50.972;7.072;2023-05-29T02:44:45;101583.69;;;15.07;70.71
8140;BME280;4111;50.972;7.072;2023-05-29T02:47:11;101580.06;;;15.01;70.92
8140;BME280;4111;50.972;7.072;2023-05-29T02:49:37;101573.81;;;15.06;71.00
8140;BME280;4111;50.972;7.072;2023-05-29T02:52:04;101572.94;;;15.00;70.84
8140;BME280;4111;50.972;7.072;2023-05-29T02:54:31;101560.16;;;15.06;70.95
8140;BME280;4111;50.972;7.072;2023-05-29T02:56:57;101572.25;;;14.88;71.08
8140;BME280;4111;50.972;7.072;2023-05-29T02:59:23;101579.19;;;14.74;71.77
8140;BME280;4111;50.972;7.072;2023-05-29T03:01:50;101582.41;;;14.71;72.13
8140;BME280;4111;50.972;7.072;2023-05-29T03:04:18;101588.66;;;14.66;72.13
8140;BME280;4111;50.972;7.072;2023-05-29T03:06:46;101583.25;;;14.71;72.42
8140;BME280;4111;50.972;7.072;2023-05-29T03:09:13;101577.16;;;14.64;72.42
8140;BME280;4111;50.972;7.072;2023-05-29T03:11:39;101577.81;;;14.71;72.30
8140;BME280;4111;50.972;7.072;2023-05-29T03:14:07;101581.59;;;14.70;72.23
8140;BME280;4111;50.972;7.072;2023-05-29T03:16:33;101589.78;;;14.70;72.49
8140;BME280;4111;50.972;7.072;2023-05-29T03:19:00;101591.59;;;14.59;72.69
8140;BME280;4111;50.972;7.072;2023-05-29T03:21:27;101596.19;;;14.59;72.85
8140;BME280;4111;50.972;7.072;2023-05-29T03:23:53;101600.34;;;14.44;72.94
8140;BME280;4111;50.972;7.072;2023-05-29T03:26:19;101602.03;;;14.45;73.42
8140;BME280;4111;50.972;7.072;2023-05-29T03:28:47;101604.53;;;14.30;73.66
8140;BME280;4111;50.972;7.072;2023-05-29T03:31:14;101599.53;;;14.27;73.93
8140;BME280;4111;50.972;7.072;2023-05-29T03:33:40;101593.41;;;14.37;73.91
8140;BME280;4111;50.972;7.072;2023-05-29T03:36:07;101598.38;;;14.23;74.10
8140;BME280;4111;50.972;7.072;2023-05-29T03:38:33;101604.00;;;14.33;73.72
8140;BME280;4111;50.972;7.072;2023-05-29T03:41:00;101614.28;;;14.26;74.04
8140;BME280;4111;50.972;7.072;2023-05-29T03:43:26;101603.84;;;14.23;74.36
8140;BME280;4111;50.972;7.072;2023-05-29T03:45:56;101606.16;;;14.31;74.10
8140;BME280;4111;50.972;7.072;2023-05-29T03:48:22;101605.53;;;14.24;74.50
8140;BME280;4111;50.972;7.072;2023-05-29T03:50:49;101598.06;;;14.19;74.65
8140;BME280;4111;50.972;7.072;2023-05-29T03:53:15;101607.69;;;14.05;75.09
8140;BME280;4111;50.972;7.072;2023-05-29T03:55:42;101611.31;;;14.11;75.66
8140;BME280;4111;50.972;7.072;2023-05-29T03:58:08;101607.16;;;14.25;74.98
8140;BME280;4111;50.972;7.072;2023-05-29T04:00:35;101616.25;;;14.14;74.82
8140;BME280;4111;50.972;7.072;2023-05-29T04:03:01;101612.97;;;13.95;75.17
8140;BME280;4111;50.972;7.072;2023-05-29T04:05:28;101613.22;;;13.93;75.61
8140;BME280;4111;50.972;7.072;2023-05-29T04:07:55;101612.97;;;13.95;75.59
8140;BME280;4111;50.972;7.072;2023-05-29T04:10:40;101614.78;;;13.89;75.91
8140;BME280;4111;50.972;7.072;2023-05-29T04:13:07;101615.78;;;14.00;76.08
8140;BME280;4111;50.972;7.072;2023-05-29T04:15:33;101622.97;;;13.89;76.29
8140;BME280;4111;50.972;7.072;2023-05-29T04:18:00;101628.34;;;13.84;76.34
8140;BME280;4111;50.972;7.072;2023-05-29T04:20:27;101621.34;;;14.05;76.22
8140;BME280;4111;50.972;7.072;2023-05-29T04:22:53;101621.25;;;14.17;75.58
8140;BME280;4111;50.972;7.072;2023-05-29T04:25:20;101627.88;;;14.21;75.93
8140;BME280;4111;50.972;7.072;2023-05-29T04:27:46;101631.50;;;14.26;75.69
8140;BME280;4111;50.972;7.072;2023-05-29T04:30:15;101623.41;;;14.32;75.84
8140;BME280;4111;50.972;7.072;2023-05-29T04:32:42;101634.16;;;14.21;75.56
8140;BME280;4111;50.972;7.072;2023-05-29T04:35:09;101634.47;;;14.25;76.12
8140;BME280;4111;50.972;7.072;2023-05-29T04:37:36;101633.00;;;14.34;75.95
8140;BME280;4111;50.972;7.072;2023-05-29T04:40:07;101639.66;;;14.43;75.86
8140;BME280;4111;50.972;7.072;2023-05-29T04:42:36;101650.69;;;14.48;75.63
8140;BME280;4111;50.972;7.072;2023-05-29T04:45:03;101652.94;;;14.52;75.15
8140;BME280;4111;50.972;7.072;2023-05-29T04:47:32;101649.34;;;14.51;75.36
8140;BME280;4111;50.972;7.072;2023-05-29T04:49:59;101660.56;;;14.50;75.28
8140;BME280;4111;50.972;7.072;2023-05-29T04:52:26;101655.16;;;14.55;75.56
8140;BME280;4111;50.972;7.072;2023-05-29T04:54:54;101651.50;;;14.49;75.70
8140;BME280;4111;50.972;7.072;2023-05-29T04:57:20;101668.81;;;14.55;75.97
8140;BME280;4111;50.972;7.072;2023-05-29T04:59:47;101671.41;;;14.61;75.25
8140;BME280;4111;50.972;7.072;2023-05-29T05:02:13;101666.44;;;14.58;75.45
8140;BME280;4111;50.972;7.072;2023-05-29T05:04:40;101664.03;;;14.62;75.60
8140;BME280;4111;50.972;7.072;2023-05-29T05:07:06;101671.41;;;14.61;75.63
8140;BME280;4111;50.972;7.072;2023-05-29T05:09:33;101663.59;;;14.70;75.86
8140;BME280;4111;50.972;7.072;2023-05-29T05:11:59;101663.78;;;14.63;75.64
8140;BME280;4111;50.972;7.072;2023-05-29T05:14:26;101665.84;;;14.73;75.57
8140;BME280;4111;50.972;7.072;2023-05-29T05:16:55;101668.81;;;14.72;74.89
8140;BME280;4111;50.972;7.072;2023-05-29T05:19:22;101673.72;;;14.70;74.63
8140;BME280;4111;50.972;7.072;2023-05-29T05:21:48;101675.63;;;14.52;74.94
8140;BME280;4111;50.972;7.072;2023-05-29T05:24:18;101668.41;;;14.46;75.04
8140;BME280;4111;50.972;7.072;2023-05-29T05:26:44;101673.22;;;14.56;75.07
8140;BME280;4111;50.972;7.072;2023-05-29T05:29:10;101670.16;;;14.52;75.03
8140;BME280;4111;50.972;7.072;2023-05-29T05:31:37;101676.38;;;14.47;75.10
8140;BME280;4111;50.972;7.072;2023-05-29T05:34:03;101673.88;;;14.63;75.74
8140;BME280;4111;50.972;7.072;2023-05-29T05:36:30;101671.22;;;14.68;75.10
8140;BME280;4111;50.972;7.072;2023-05-29T05:38:57;101667.94;;;14.66;74.91
8140;BME280;4111;50.972;7.072;2023-05-29T05:41:23;101670.56;;;14.61;75.20
8140;BME280;4111;50.972;7.072;2023-05-29T05:43:50;101671.31;;;14.73;75.21
8140;BME280;4111;50.972;7.072;2023-05-29T05:46:16;101676.25;;;14.93;75.35
8140;BME280;4111;50.972;7.072;2023-05-29T05:48:44;101682.22;;;15.12;74.72
8140;BME280;4111;50.972;7.072;2023-05-29T05:51:10;101688.44;;;15.30;74.35
8140;BME280;4111;50.972;7.072;2023-05-29T05:53:39;101692.09;;;15.35;74.15
8140;BME280;4111;50.972;7.072;2023-05-29T05:56:05;101698.50;;;15.46;73.82
8140;BME280;4111;50.972;7.072;2023-05-29T05:58:32;101688.56;;;15.40;73.45
8140;BME280;4111;50.972;7.072;2023-05-29T06:00:58;101690.72;;;15.38;73.27
8140;BME280;4111;50.972;7.072;2023-05-29T06:03:25;101694.63;;;15.42;73.36
8140;BME280;4111;50.972;7.072;2023-05-29T06:05:52;101689.72;;;15.44;73.03
8140;BME280;4111;50.972;7.072;2023-05-29T06:08:20;101693.22;;;15.39;72.99
8140;BME280;4111;50.972;7.072;2023-05-29T06:10:46;101692.44;;;15.44;72.75
8140;BME280;4111;50.972;7.072;2023-05-29T06:13:13;101699.19;;;15.36;73.16
8140;BME280;4111;50.972;7.072;2023-05-29T06:15:39;101699.97;;;15.32;73.39
8140;BME280;4111;50.972;7.072;2023-05-29T06:18:06;101692.59;;;15.54;73.14
8140;BME280;4111;50.972;7.072;2023-05-29T06:20:33;101691.94;;;15.47;72.84
8140;BME280;4111;50.972;7.072;2023-05-29T06:23:00;101697.59;;;15.62;72.68
8140;BME280;4111;50.972;7.072;2023-05-29T06:25:26;101704.22;;;15.66;72.43
8140;BME280;4111;50.972;7.072;2023-05-29T06:27:59;101703.00;;;15.57;71.99
8140;BME280;4111;50.972;7.072;2023-05-29T06:30:27;101710.28;;;15.46;72.46
8140;BME280;4111;50.972;7.072;2023-05-29T06:32:53;101708.94;;;15.49;72.28
8140;BME280;4111;50.972;7.072;2023-05-29T06:35:20;101712.00;;;15.75;72.46
8140;BME280;4111;50.972;7.072;2023-05-29T06:37:46;101716.03;;;15.94;72.27
8140;BME280;4111;50.972;7.072;2023-05-29T06:40:13;101712.63;;;15.82;71.85
8140;BME280;4111;50.972;7.072;2023-05-29T06:42:40;101708.28;;;15.86;71.59
8140;BME280;4111;50.972;7.072;2023-05-29T06:45:07;101698.00;;;15.98;71.28
8140;BME280;4111;50.972;7.072;2023-05-29T06:47:34;101700.34;;;16.17;71.33
8140;BME280;4111;50.972;7.072;2023-05-29T06:50:01;101703.84;;;16.39;71.04
8140;BME280;4111;50.972;7.072;2023-05-29T06:52:27;101703.69;;;16.24;70.20
8140;BME280;4111;50.972;7.072;2023-05-29T06:54:53;101710.00;;;16.24;70.09
8140;BME280;4111;50.972;7.072;2023-05-29T06:57:20;101702.72;;;16.40;69.92
8140;BME280;4111;50.972;7.072;2023-05-29T06:59:47;101710.69;;;16.42;69.35
8140;BME280;4111;50.972;7.072;2023-05-29T07:02:13;101705.13;;;16.32;68.75
8140;BME280;4111;50.972;7.072;2023-05-29T07:04:39;101713.19;;;16.43;68.72
8140;BME280;4111;50.972;7.072;2023-05-29T07:07:06;101714.88;;;16.50;68.68
8140;BME280;4111;50.972;7.072;2023-05-29T07:09:32;101714.13;;;16.64;68.56
8140;BME280;4111;50.972;7.072;2023-05-29T07:11:59;101705.03;;;16.54;67.82
8140;BME280;4111;50.972;7.072;2023-05-29T07:14:25;101710.53;;;16.21;67.89
8140;BME280;4111;50.972;7.072;2023-05-29T07:16:52;101707.56;;;16.28;68.33
8140;BME280;4111;50.972;7.072;2023-05-29T07:19:18;101705.56;;;16.18;68.38
8140;BME280;4111;50.972;7.072;2023-05-29T07:21:47;101713.69;;;16.40;68.34
8140;BME280;4111;50.972;7.072;2023-05-29T07:24:13;101706.19;;;16.63;68.23
8140;BME280;4111;50.972;7.072;2023-05-29T07:26:40;101706.28;;;16.78;67.85
8140;BME280;4111;50.972;7.072;2023-05-29T07:29:06;101704.09;;;16.80;67.39
8140;BME280;4111;50.972;7.072;2023-05-29T07:31:32;101712.41;;;16.85;67.09
8140;BME280;4111;50.972;7.072;2023-05-29T07:33:59;101719.00;;;16.84;66.89
8140;BME280;4111;50.972;7.072;2023-05-29T07:36:29;101716.88;;;16.97;66.76
8140;BME280;4111;50.972;7.072;2023-05-29T07:38:57;101719.66;;;17.07;66.55
8140;BME280;4111;50.972;7.072;2023-05-29T07:41:24;101714.25;;;17.22;66.80
8140;BME280;4111;50.972;7.072;2023-05-29T07:43:52;101717.06;;;17.38;66.57
8140;BME280;4111;50.972;7.072;2023-05-29T07:46:19;101724.31;;;17.70;66.58
8140;BME280;4111;50.972;7.072;2023-05-29T07:48:46;101719.69;;;17.91;66.17
8140;BME280;4111;50.972;7.072;2023-05-29T07:51:12;101714.53;;;18.25;66.03
8140;BME280;4111;50.972;7.072;2023-05-29T07:53:39;101719.47;;;18.28;64.99
8140;BME280;4111;50.972;7.072;2023-05-29T07:56:06;101721.66;;;18.16;63.74
8140;BME280;4111;50.972;7.072;2023-05-29T07:58:32;101716.19;;;18.21;63.82
8140;BME280;4111;50.972;7.072;2023-05-29T08:00:59;101721.66;;;18.16;63.76
8140;BME280;4111;50.972;7.072;2023-05-29T08:03:25;101721.13;;;18.39;63.79
8140;BME280;4111;50.972;7.072;2023-05-29T08:05:52;101724.13;;;18.38;62.82
8140;BME280;4111;50.972;7.072;2023-05-29T08:08:19;101716.44;;;18.30;62.41
8140;BME280;4111;50.972;7.072;2023-05-29T08:10:45;101724.97;;;18.38;62.35
8140;BME280;4111;50.972;7.072;2023-05-29T08:13:12;101725.22;;;18.42;62.14
8140;BME280;4111;50.972;7.072;2023-05-29T08:15:38;101726.59;;;18.70;62.68
8140;BME280;4111;50.972;7.072;2023-05-29T08:18:04;101725.50;;;18.87;61.58
8140;BME280;4111;50.972;7.072;2023-05-29T08:20:31;101724.63;;;19.12;61.58
8140;BME280;4111;50.972;7.072;2023-05-29T08:22:57;101723.22;;;19.14;60.86
8140;BME280;4111;50.972;7.072;2023-05-29T08:25:24;101721.50;;;19.29;61.30
8140;BME280;4111;50.972;7.072;2023-05-29T08:27:50;101725.88;;;19.40;60.48
8140;BME280;4111;50.972;7.072;2023-05-29T08:30:17;101720.38;;;19.35;60.72
8140;BME280;4111;50.972;7.072;2023-05-29T08:32:43;101717.59;;;19.45;60.18
8140;BME280;4111;50.972;7.072;2023-05-29T08:35:10;101715.94;;;19.39;59.91
8140;BME280;4111;50.972;7.072;2023-05-29T08:37:36;101712.84;;;19.56;59.95
8140;BME280;4111;50.972;7.072;2023-05-29T08:40:03;101714.78;;;19.55;59.31
8140;BME280;4111;50.972;7.072;2023-05-29T08:42:36;101715.28;;;19.73;59.29
8140;BME280;4111;50.972;7.072;2023-05-29T08:45:06;101712.41;;;19.88;58.91
8140;BME280;4111;50.972;7.072;2023-05-29T08:47:40;101711.84;;;19.91;58.68
8140;BME280;4111;50.972;7.072;2023-05-29T08:50:11;101713.47;;;19.92;58.47
8140;BME280;4111;50.972;7.072;2023-05-29T08:52:38;101701.16;;;19.85;58.35
8140;BME280;4111;50.972;7.072;2023-05-29T08:55:07;101717.09;;;19.93;58.42
8140;BME280;4111;50.972;7.072;2023-05-29T08:57:34;101721.94;;;20.06;57.97
8140;BME280;4111;50.972;7.072;2023-05-29T09:00:01;101706.22;;;20.41;59.07
8140;BME280;4111;50.972;7.072;2023-05-29T09:02:27;101710.53;;;20.52;57.03
8140;BME280;4111;50.972;7.072;2023-05-29T09:04:53;101711.66;;;20.80;57.65
8140;BME280;4111;50.972;7.072;2023-05-29T09:07:21;101707.94;;;20.66;56.39
8140;BME280;4111;50.972;7.072;2023-05-29T09:09:48;101705.47;;;20.65;55.80
8140;BME280;4111;50.972;7.072;2023-05-29T09:12:15;101709.78;;;20.41;56.19
8140;BME280;4111;50.972;7.072;2023-05-29T09:14:44;101705.94;;;20.43;56.15
8140;BME280;4111;50.972;7.072;2023-05-29T09:17:12;101704.31;;;20.71;56.04
8140;BME280;4111;50.972;7.072;2023-05-29T09:19:39;101699.94;;;20.94;55.58
8140;BME280;4111;50.972;7.072;2023-05-29T09:22:09;101706.94;;;20.81;55.45
8140;BME280;4111;50.972;7.072;2023-05-29T09:24:37;101705.31;;;20.80;55.81
8140;BME280;4111;50.972;7.072;2023-05-29T09:27:05;101703.84;;;20.64;55.58
8140;BME280;4111;50.972;7.072;2023-05-29T09:29:45;101694.97;;;20.91;55.65
8140;BME280;4111;50.972;7.072;2023-05-29T09:32:15;101696.00;;;21.00;54.96
8140;BME280;4111;50.972;7.072;2023-05-29T09:34:43;101699.81;;;21.04;54.98
8140;BME280;4111;50.972;7.072;2023-05-29T09:37:11;101695.81;;;21.15;55.17
8140;BME280;4111;50.972;7.072;2023-05-29T09:39:50;101706.63;;;20.88;54.76
8140;BME280;4111;50.972;7.072;2023-05-29T09:42:18;101701.66;;;21.09;54.72
8140;BME280;4111;50.972;7.072;2023-05-29T09:44:48;101701.78;;;21.23;54.81
8140;BME280;4111;50.972;7.072;2023-05-29T09:47:17;101701.69;;;21.33;54.88
8140;BME280;4111;50.972;7.072;2023-05-29T09:49:44;101711.13;;;21.51;54.88
8140;BME280;4111;50.972;7.072;2023-05-29T09:52:13;101707.78;;;21.30;54.00
8140;BME280;4111;50.972;7.072;2023-05-29T09:54:43;101711.19;;;21.22;53.93
8140;BME280;4111;50.972;7.072;2023-05-29T09:57:14;101709.97;;;21.33;54.08
8140;BME280;4111;50.972;7.072;2023-05-29T09:59:44;101714.34;;;21.58;53.75
8140;BME280;4111;50.972;7.072;2023-05-29T10:02:14;101722.09;;;21.56;54.12
8140;BME280;4111;50.972;7.072;2023-05-29T10:04:41;101705.22;;;21.57;53.41
8140;BME280;4111;50.972;7.072;2023-05-29T10:07:15;101690.91;;;21.55;53.64
8140;BME280;4111;50.972;7.072;2023-05-29T10:09:47;101708.78;;;21.82;54.07
8140;BME280;4111;50.972;7.072;2023-05-29T10:12:20;101705.91;;;21.87;53.40
8140;BME280;4111;50.972;7.072;2023-05-29T10:14:49;101707.63;;;21.45;52.88
8140;BME280;4111;50.972;7.072;2023-05-29T10:17:18;101708.06;;;21.28;53.73
8140;BME280;4111;50.972;7.072;2023-05-29T10:19:49;101702.19;;;21.35;53.17
8140;BME280;4111;50.972;7.072;2023-05-29T10:22:19;101702.72;;;21.37;53.20
8140;BME280;4111;50.972;7.072;2023-05-29T10:24:48;101703.81;;;21.60;53.59
8140;BME280;4111;50.972;7.072;2023-05-29T10:27:15;101707.09;;;21.81;53.98
8140;BME280;4111;50.972;7.072;2023-05-29T10:29:48;101711.22;;;21.84;52.76
8140;BME280;4111;50.972;7.072;2023-05-29T10:32:28;101709.28;;;21.65;52.74
8140;BME280;4111;50.972;7.072;2023-05-29T10:35:06;101713.56;;;21.76;53.36
8140;BME280;4111;50.972;7.072;2023-05-29T10:37:57;101713.38;;;21.68;52.76
8140;BME280;4111;50.972;7.072;2023-05-29T10:40:29;101707.94;;;21.63;52.71
8140;BME280;4111;50.972;7.072;2023-05-29T10:42:55;101715.63;;;21.66;52.78
8140;BME280;4111;50.972;7.072;2023-05-29T10:47:54;101711.38;;;21.54;52.64
8140;BME280;4111;50.972;7.072;2023-05-29T10:50:43;101706.00;;;21.39;52.87
8140;BME280;4111;50.972;7.072;2023-05-29T10:53:15;101695.91;;;21.53;53.31
8140;BME280;4111;50.972;7.072;2023-05-29T10:55:44;101710.47;;;21.78;53.28
8140;BME280;4111;50.972;7.072;2023-05-29T10:58:25;101704.78;;;21.69;53.23
8140;BME280;4111;50.972;7.072;2023-05-29T11:00:53;101698.53;;;21.83;54.37
8140;BME280;4111;50.972;7.072;2023-05-29T11:03:22;101696.22;;;21.71;53.12
8140;BME280;4111;50.972;7.072;2023-05-29T11:08:39;101703.91;;;21.55;52.52
8140;BME280;4111;50.972;7.072;2023-05-29T11:11:11;101703.59;;;21.56;52.94
8140;BME280;4111;50.972;7.072;2023-05-29T11:13:38;101700.84;;;21.56;52.75
8140;BME280;4111;50.972;7.072;2023-05-29T11:16:13;101684.91;;;21.67;53.12
8140;BME280;4111;50.972;7.072;2023-05-29T11:18:42;101697.72;;;21.82;53.51
8140;BME280;4111;50.972;7.072;2023-05-29T11:24:03;101685.50;;;21.83;53.57
8140;BME280;4111;50.972;7.072;2023-05-29T11:26:37;101686.03;;;21.85;52.29
8140;BME280;4111;50.972;7.072;2023-05-29T11:29:04;101684.81;;;21.91;53.07
8140;BME280;4111;50.972;7.072;2023-05-29T11:31:33;101685.06;;;21.95;52.75
8140;BME280;4111;50.972;7.072;2023-05-29T11:34:01;101678.72;;;21.94;52.81
8140;BME280;4111;50.972;7.072;2023-05-29T11:36:31;101677.41;;;22.06;53.14
8140;BME280;4111;50.972;7.072;2023-05-29T11:38:59;101681.47;;;21.94;52.50
8140;BME280;4111;50.972;7.072;2023-05-29T11:41:27;101680.22;;;21.87;52.83
8140;BME280;4111;50.972;7.072;2023-05-29T11:44:00;101675.72;;;21.91;52.66
8140;BME280;4111;50.972;7.072;2023-05-29T11:46:28;101692.19;;;21.82;52.62
8140;BME280;4111;50.972;7.072;2023-05-29T11:49:00;101676.63;;;21.86;52.79
8140;BME280;4111;50.972;7.072;2023-05-29T11:51:27;101673.78;;;21.91;52.70
8140;BME280;4111;50.972;7.072;2023-05-29T11:53:54;101675.03;;;21.99;52.39
8140;BME280;4111;50.972;7.072;2023-05-29T11:56:25;101673.88;;;22.19;52.46
8140;BME280;4111;50.972;7.072;2023-05-29T11:58:53;101664.25;;;22.16;52.21
8140;BME280;4111;50.972;7.072;2023-05-29T12:01:23;101675.81;;;22.18;52.08
8140;BME280;4111;50.972;7.072;2023-05-29T12:03:51;101668.63;;;22.36;51.99
8140;BME280;4111;50.972;7.072;2023-05-29T12:06:34;101673.72;;;22.29;51.01
8140;BME280;4111;50.972;7.072;2023-05-29T12:09:03;101666.19;;;22.16;50.88
8140;BME280;4111;50.972;7.072;2023-05-29T12:11:31;101667.94;;;22.12;51.36
8140;BME280;4111;50.972;7.072;2023-05-29T12:13:58;101669.03;;;22.11;51.30
8140;BME280;4111;50.972;7.072;2023-05-29T12:16:30;101660.63;;;22.02;51.45
8140;BME280;4111;50.972;7.072;2023-05-29T12:18:59;101661.44;;;22.03;51.84
8140;BME280;4111;50.972;7.072;2023-05-29T12:21:26;101656.88;;;22.12;51.76
8140;BME280;4111;50.972;7.072;2023-05-29T12:23:54;101652.31;;;22.35;52.07
8140;BME280;4111;50.972;7.072;2023-05-29T12:26:39;101662.13;;;22.27;50.77
8140;BME280;4111;50.972;7.072;2023-05-29T12:29:05;101664.25;;;22.16;51.02
8140;BME280;4111;50.972;7.072;2023-05-29T12:31:32;101659.91;;;22.10;51.18
8140;BME280;4111;50.972;7.072;2023-05-29T12:34:01;101664.53;;;22.15;50.96
8140;BME280;4111;50.972;7.072;2023-05-29T12:36:28;101657.22;;;22.24;51.04
8140;BME280;4111;50.972;7.072;2023-05-29T12:38:54;101666.72;;;22.18;50.67
8140;BME280;4111;50.972;7.072;2023-05-29T12:41:28;101660.41;;;22.31;50.62
8140;BME280;4111;50.972;7.072;2023-05-29T12:43:56;101666.81;;;22.46;50.32
8140;BME280;4111;50.972;7.072;2023-05-29T12:46:27;101670.41;;;22.60;50.75
8140;BME280;4111;50.972;7.072;2023-05-29T12:48:54;101660.78;;;22.57;49.39
8140;BME280;4111;50.972;7.072;2023-05-29T12:51:26;101656.78;;;22.50;50.19
8140;BME280;4111;50.972;7.072;2023-05-29T12:53:52;101664.38;;;22.58;49.52
8140;BME280;4111;50.972;7.072;2023-05-29T12:56:24;101662.91;;;22.47;49.38
8140;BME280;4111;50.972;7.072;2023-05-29T12:58:52;101654.88;;;22.31;48.93
8140;BME280;4111;50.972;7.072;2023-05-29T13:01:19;101663.72;;;22.33;49.11
8140;BME280;4111;50.972;7.072;2023-05-29T13:03:48;101659.41;;;22.55;49.32
8140;BME280;4111;50.972;7.072;2023-05-29T13:06:15;101669.97;;;22.53;49.02
8140;BME280;4111;50.972;7.072;2023-05-29T13:08:42;101668.63;;;22.36;48.89
8140;BME280;4111;50.972;7.072;2023-05-29T13:11:09;101675.38;;;22.30;48.91
8140;BME280;4111;50.972;7.072;2023-05-29T13:13:35;101659.41;;;22.41;49.41
8140;BME280;4111;50.972;7.072;2023-05-29T13:16:02;101663.56;;;22.71;49.44
8140;BME280;4111;50.972;7.072;2023-05-29T13:18:28;101669.69;;;22.54;48.38
8140;BME280;4111;50.972;7.072;2023-05-29T13:20:55;101663.34;;;22.54;48.26
8140;BME280;4111;50.972;7.072;2023-05-29T13:23:21;101666.63;;;22.56;48.05
8140;BME280;4111;50.972;7.072;2023-05-29T13:25:48;101668.44;;;22.47;48.21
8140;BME280;4111;50.972;7.072;2023-05-29T13:28:15;101665.06;;;22.50;48.60